Time;durP1;ratioP1;P1;durP2;ratioP2;P2;SDS_P1;SDS_P2;PMS_P1;PMS_P2;Temp;Humidity;BMP_temperature;BMP_pressure;BME280_temperature;BME280_humidity;BME280_pressure;Samples;Min_cycle;Max_cycle;Signal;HPM_P1;HPM_P2
2022/07/05 00:00:58;;;;;;;2.00;1.90;;;24.90;49.80;26.20;101227.00;;;;5066555;28;20170;-46
2022/07/05 00:03:24;;;;;;;2.72;2.00;;;24.90;49.80;26.20;101235.00;;;;5065306;28;20173;-46
2022/07/05 00:05:50;;;;;;;2.25;2.05;;;24.90;49.80;26.20;101241.00;;;;5067094;28;20281;-48
2022/07/05 00:08:16;;;;;;;3.05;2.30;;;24.90;49.80;26.10;101250.00;;;;5064725;28;20172;-46
2022/07/05 00:10:41;;;;;;;2.50;2.30;;;24.90;49.80;26.10;101246.00;;;;5066480;28;20597;-45
2022/07/05 00:13:07;;;;;;;2.40;2.20;;;24.90;49.80;26.10;101235.00;;;;5066745;28;20193;-47
2022/07/05 00:15:33;;;;;;;3.10;2.20;;;24.80;49.80;26.00;101247.00;;;;5065889;28;20700;-47
2022/07/05 00:17:59;;;;;;;3.97;2.13;;;24.80;49.80;26.00;101242.00;;;;5065592;28;20169;-46
2022/07/05 00:20:24;;;;;;;2.33;2.00;;;24.80;49.80;26.00;101245.00;;;;5065479;28;20173;-46
2022/07/05 00:22:50;;;;;;;2.20;2.00;;;24.90;49.80;26.00;101240.00;;;;5065841;28;20238;-47
2022/07/05 00:25:16;;;;;;;2.28;2.08;;;24.80;49.80;26.00;101245.00;;;;5065864;28;20216;-47
2022/07/05 00:27:42;;;;;;;3.33;2.20;;;24.80;50.00;25.90;101247.00;;;;5065506;28;20209;-46
2022/07/05 00:30:09;;;;;;;2.47;2.22;;;24.80;49.80;25.90;101248.00;;;;5065594;28;20177;-46
2022/07/05 00:32:34;;;;;;;4.00;2.20;;;24.80;49.90;25.90;101254.00;;;;5064922;28;20204;-48
2022/07/05 00:35:00;;;;;;;2.20;2.00;;;24.70;49.90;25.90;101247.00;;;;5064735;28;20190;-46
2022/07/05 00:37:26;;;;;;;2.55;2.10;;;24.70;49.80;25.90;101248.00;;;;5065578;28;20189;-46
2022/07/05 00:39:51;;;;;;;3.35;2.20;;;24.70;49.90;25.80;101249.00;;;;5065951;28;20806;-46
2022/07/05 00:42:17;;;;;;;3.00;2.22;;;24.70;49.80;25.80;101257.00;;;;5066206;28;20173;-47
2022/07/05 00:44:43;;;;;;;2.33;2.10;;;24.70;49.90;25.80;101258.00;;;;5065665;28;20173;-46
2022/07/05 00:47:10;;;;;;;2.67;2.10;;;24.70;49.90;25.80;101249.00;;;;5065337;28;20225;-46
2022/07/05 00:49:36;;;;;;;2.85;2.17;;;24.70;49.80;25.80;101249.00;;;;5066269;28;20169;-46
2022/07/05 00:52:02;;;;;;;2.30;2.10;;;24.60;49.80;25.70;101242.00;;;;5065757;28;20226;-47
2022/07/05 00:54:29;;;;;;;3.07;2.30;;;24.60;49.90;25.70;101254.00;;;;5065850;28;20199;-47
2022/07/05 00:56:55;;;;;;;3.28;2.35;;;24.60;49.80;25.70;101253.00;;;;5065544;28;20186;-47
2022/07/05 00:59:21;;;;;;;2.40;2.20;;;24.60;49.60;25.70;101252.00;;;;5065449;28;20548;-46
2022/07/05 01:01:47;;;;;;;3.63;2.40;;;24.60;49.70;25.70;101258.00;;;;5065559;28;20170;-48
2022/07/05 01:04:13;;;;;;;2.30;2.10;;;24.60;49.80;25.60;101251.00;;;;5066068;28;20185;-48
2022/07/05 01:06:44;;;;;;;2.30;2.10;;;24.50;49.70;25.60;101255.00;;;;5065550;28;20197;-48
2022/07/05 01:09:13;;;;;;;3.93;2.30;;;24.50;49.70;25.60;101227.00;;;;5065440;28;20170;-46
2022/07/05 01:11:40;;;;;;;2.40;2.20;;;24.50;49.60;25.60;101255.00;;;;5064413;28;20649;-46
2022/07/05 01:14:10;;;;;;;4.40;2.10;;;24.50;49.50;25.50;101245.00;;;;5065621;28;20268;-47
2022/07/05 01:16:39;;;;;;;2.50;2.30;;;24.50;49.60;25.50;101254.00;;;;5064337;28;20838;-47
2022/07/05 01:19:06;;;;;;;2.37;2.17;;;24.40;49.50;25.50;101251.00;;;;5064005;28;20177;-46
2022/07/05 01:21:33;;;;;;;2.40;2.20;;;24.40;49.40;25.50;101252.00;;;;5047751;28;20834;-47
2022/07/05 01:23:59;;;;;;;2.50;2.30;;;24.40;49.40;25.50;101254.00;;;;5063917;28;20185;-47
2022/07/05 01:26:24;;;;;;;2.87;2.27;;;24.40;49.60;25.40;101253.00;;;;5047313;28;20230;-46
2022/07/05 01:28:50;;;;;;;2.33;2.13;;;24.40;49.60;25.40;101240.00;;;;5047276;28;20162;-46
2022/07/05 01:31:16;;;;;;;3.03;2.47;;;24.30;49.50;25.40;101251.00;;;;5065295;28;20176;-49
2022/07/05 01:33:41;;;;;;;2.70;2.20;;;24.40;49.60;25.40;101250.00;;;;5067509;28;20182;-46
2022/07/05 01:36:08;;;;;;;2.60;2.40;;;24.30;49.60;25.40;101253.00;;;;5068487;28;20244;-46
2022/07/05 01:38:34;;;;;;;2.43;2.10;;;24.30;49.60;25.30;101247.00;;;;5034483;28;20621;-49
2022/07/05 01:41:00;;;;;;;2.40;2.20;;;24.20;49.50;25.30;101261.00;;;;5067663;28;20248;-47
2022/07/05 01:43:25;;;;;;;2.88;2.15;;;24.20;50.20;25.30;101254.00;;;;5068769;28;20193;-44
2022/07/05 01:45:51;;;;;;;2.33;2.03;;;24.20;49.60;25.30;101257.00;;;;5068346;28;20194;-46
2022/07/05 01:48:19;;;;;;;2.83;2.10;;;24.10;49.50;25.30;101261.00;;;;5068860;28;20269;-46
2022/07/05 01:51:13;;;;;;;2.50;2.30;;;24.20;49.50;25.20;101256.00;;;;5071692;28;20161;-48
2022/07/05 01:53:39;;;;;;;2.20;2.00;;;24.20;49.50;25.20;101267.00;;;;5038059;28;20154;-47
2022/07/05 01:56:05;;;;;;;2.57;2.20;;;24.10;49.40;25.20;101264.00;;;;5070586;28;20250;-48
2022/07/05 01:58:31;;;;;;;2.80;2.00;;;24.10;49.50;25.20;101265.00;;;;5070088;28;20643;-46
2022/07/05 02:00:58;;;;;;;3.00;2.13;;;24.00;49.60;25.10;101260.00;;;;5069281;28;20177;-47
2022/07/05 02:03:24;;;;;;;2.80;2.30;;;24.00;49.80;25.10;101265.00;;;;5068471;28;20170;-45
2022/07/05 02:05:50;;;;;;;2.70;2.33;;;24.00;49.80;25.10;101266.00;;;;5068239;28;20880;-46
2022/07/05 02:08:16;;;;;;;3.87;2.30;;;23.90;49.70;25.10;101277.00;;;;5067953;28;20196;-46
2022/07/05 02:10:42;;;;;;;3.77;2.20;;;23.90;49.80;25.10;101270.00;;;;5068126;28;20154;-46
2022/07/05 02:13:08;;;;;;;2.70;2.30;;;23.90;49.70;25.00;101272.00;;;;5068179;28;20227;-46
2022/07/05 02:15:36;;;;;;;2.23;2.03;;;23.90;49.70;25.00;101265.00;;;;5068736;28;20185;-46
2022/07/05 02:18:02;;;;;;;2.80;2.10;;;23.90;49.70;25.00;101274.00;;;;5067814;28;20626;-46
2022/07/05 02:20:28;;;;;;;2.33;2.13;;;24.00;49.70;25.00;101267.00;;;;5068225;28;20212;-47
2022/07/05 02:22:54;;;;;;;2.40;2.20;;;23.90;49.70;25.00;101271.00;;;;5067635;28;20181;-47
2022/07/05 02:25:20;;;;;;;2.13;2.00;;;23.90;49.60;24.90;101265.00;;;;5067708;28;20158;-47
2022/07/05 02:27:46;;;;;;;2.40;2.20;;;23.90;50.30;24.90;101267.00;;;;5067851;28;20201;-49
2022/07/05 02:30:12;;;;;;;2.00;1.90;;;23.90;49.70;24.90;101269.00;;;;5066701;28;20166;-46
2022/07/05 02:32:37;;;;;;;3.03;2.10;;;23.90;49.70;24.90;101254.00;;;;5067743;28;20181;-46
2022/07/05 02:35:04;;;;;;;2.57;2.20;;;23.90;49.80;24.90;101253.00;;;;5067967;28;20197;-46
2022/07/05 02:37:30;;;;;;;3.33;2.30;;;23.90;49.90;24.90;101258.00;;;;5067486;28;20190;-47
2022/07/05 02:39:56;;;;;;;3.70;2.20;;;23.80;50.10;24.80;101196.00;;;;5067881;28;20520;-48
2022/07/05 02:42:22;;;;;;;2.70;2.27;;;23.80;50.30;24.80;101259.00;;;;5067769;28;20181;-45
2022/07/05 02:44:47;;;;;;;2.53;2.20;;;23.80;50.40;24.80;101255.00;;;;5067544;28;20259;-45
2022/07/05 02:47:13;;;;;;;2.23;1.90;;;23.70;50.30;24.80;101254.00;;;;5067293;28;20674;-46
2022/07/05 02:49:39;;;;;;;2.90;2.40;;;23.70;50.30;24.70;101253.00;;;;5067793;28;20253;-46
2022/07/05 02:52:04;;;;;;;2.30;2.10;;;23.70;50.40;24.70;101250.00;;;;5067364;28;20249;-47
2022/07/05 02:54:30;;;;;;;2.07;1.97;;;23.70;50.90;24.70;101246.00;;;;5067749;28;20166;-47
2022/07/05 02:56:56;;;;;;;2.73;2.20;;;23.70;50.30;24.70;101245.00;;;;5067773;28;20254;-45
2022/07/05 02:59:22;;;;;;;2.90;2.13;;;23.70;50.30;24.70;101254.00;;;;5067423;28;20204;-46
2022/07/05 03:01:47;;;;;;;2.70;2.20;;;23.60;50.20;24.60;101251.00;;;;5068136;28;20173;-46
2022/07/05 03:04:13;;;;;;;3.10;2.10;;;23.60;50.30;24.60;101249.00;;;;5067699;28;20170;-45
2022/07/05 03:06:39;;;;;;;2.60;2.40;;;23.60;50.50;24.60;101251.00;;;;5066967;28;20674;-46
2022/07/05 03:09:05;;;;;;;4.97;2.47;;;23.50;50.50;24.60;101257.00;;;;5067195;28;20237;-46
2022/07/05 03:11:30;;;;;;;2.40;2.20;;;23.50;50.60;24.60;101259.00;;;;5067129;28;20193;-45
2022/07/05 03:13:56;;;;;;;3.67;2.40;;;23.50;50.50;24.50;101265.00;;;;5066977;28;20166;-45
2022/07/05 03:16:25;;;;;;;2.47;2.13;;;23.50;50.50;24.50;101274.00;;;;5066928;28;20192;-47
2022/07/05 03:18:51;;;;;;;2.43;2.13;;;23.50;50.50;24.50;101263.00;;;;5067159;28;20640;-47
2022/07/05 03:21:17;;;;;;;2.87;2.23;;;23.50;50.50;24.50;101266.00;;;;5066928;28;20204;-45
2022/07/05 03:23:42;;;;;;;3.30;2.10;;;23.50;50.50;24.50;101260.00;;;;5066811;28;20246;-46
2022/07/05 03:26:08;;;;;;;3.13;2.40;;;23.40;50.50;24.40;101262.00;;;;5066685;28;20198;-46
2022/07/05 03:28:34;;;;;;;2.47;2.00;;;23.40;50.80;24.40;101272.00;;;;5066551;28;20252;-48
2022/07/05 03:31:00;;;;;;;2.53;2.00;;;23.40;50.80;24.40;101260.00;;;;5066753;28;20166;-47
2022/07/05 03:33:25;;;;;;;2.20;2.00;;;23.30;50.50;24.40;101253.00;;;;5066557;28;20192;-46
2022/07/05 03:35:51;;;;;;;2.10;1.90;;;23.40;50.80;24.40;101261.00;;;;5066114;28;20196;-47
2022/07/05 03:38:17;;;;;;;2.57;2.17;;;23.40;50.50;24.30;101266.00;;;;5066377;28;20176;-48
2022/07/05 03:40:43;;;;;;;2.70;2.00;;;23.40;50.50;24.30;101259.00;;;;5066730;28;20747;-46
2022/07/05 03:43:08;;;;;;;3.23;2.20;;;23.30;50.40;24.30;101267.00;;;;5066670;28;20662;-46
2022/07/05 03:45:34;;;;;;;2.40;2.20;;;23.40;50.50;24.30;101273.00;;;;5066262;28;20217;-46
2022/07/05 03:48:00;;;;;;;4.30;3.53;;;23.30;50.70;24.30;101282.00;;;;5066148;28;20232;-46
2022/07/05 03:50:27;;;;;;;3.23;2.47;;;23.30;50.60;24.30;101279.00;;;;5064565;28;20172;-46
2022/07/05 03:52:52;;;;;;;2.83;2.20;;;23.30;50.60;24.30;101280.00;;;;5066266;28;20164;-47
2022/07/05 03:55:18;;;;;;;2.60;2.40;;;23.30;50.50;24.20;101281.00;;;;5065754;28;20264;-45
2022/07/05 03:57:45;;;;;;;2.73;2.20;;;23.30;50.70;24.20;101287.00;;;;5066201;28;20188;-47
2022/07/05 04:00:11;;;;;;;3.00;2.50;;;23.20;50.60;24.20;101289.00;;;;5066579;28;20265;-46
2022/07/05 04:02:37;;;;;;;4.13;2.40;;;23.20;50.80;24.10;101282.00;;;;5066102;28;20302;-44
2022/07/05 04:05:04;;;;;;;2.50;2.30;;;23.20;50.80;24.10;101282.00;;;;5066223;28;20169;-44
2022/07/05 04:07:30;;;;;;;2.57;2.27;;;23.20;50.60;24.10;101288.00;;;;5065907;28;20563;-47
2022/07/05 04:09:56;;;;;;;2.23;2.07;;;23.20;50.70;24.10;101292.00;;;;5066178;28;20177;-44
2022/07/05 04:12:21;;;;;;;2.63;2.20;;;23.10;50.50;24.10;101300.00;;;;5066102;28;20165;-46
2022/07/05 04:14:47;;;;;;;2.63;2.20;;;23.20;50.50;24.10;101301.00;;;;5065972;28;20646;-47
2022/07/05 04:17:13;;;;;;;2.93;2.20;;;23.20;50.60;24.10;101297.00;;;;5065650;28;20232;-46
2022/07/05 04:19:39;;;;;;;2.37;2.10;;;23.10;50.30;24.10;101304.00;;;;5066177;28;20223;-48
2022/07/05 04:22:04;;;;;;;2.00;1.90;;;23.10;50.40;24.10;101307.00;;;;5066072;28;20169;-46
2022/07/05 04:24:30;;;;;;;2.77;2.20;;;23.10;50.70;24.00;101299.00;;;;5066173;28;20845;-46
2022/07/05 04:26:57;;;;;;;3.17;2.10;;;23.10;50.70;24.00;101302.00;;;;5065164;28;20217;-47
2022/07/05 04:29:23;;;;;;;4.43;2.43;;;23.10;50.90;24.00;101301.00;;;;5065600;28;20292;-48
2022/07/05 04:31:48;;;;;;;3.10;2.23;;;23.10;50.60;24.00;101299.00;;;;5066023;28;20178;-46
2022/07/05 04:34:14;;;;;;;2.50;2.20;;;23.10;50.60;24.00;101305.00;;;;5065954;28;20178;-46
2022/07/05 04:36:40;;;;;;;2.87;2.10;;;23.10;50.70;24.00;101306.00;;;;5065517;28;20231;-46
2022/07/05 04:39:07;;;;;;;3.17;2.27;;;23.00;50.70;23.80;101312.00;;;;5065397;28;20174;-45
2022/07/05 04:41:33;;;;;;;3.23;2.27;;;23.10;50.80;24.00;101299.00;;;;5064389;28;20764;-46
2022/07/05 04:43:59;;;;;;;4.07;2.20;;;23.00;50.70;24.00;101301.00;;;;5066126;28;20173;-46
2022/07/05 04:46:24;;;;;;;4.33;2.30;;;23.00;50.80;23.70;101304.00;;;;5071225;28;20643;-47
2022/07/05 04:48:50;;;;;;;2.90;2.30;;;23.00;51.00;24.00;101300.00;;;;5069935;28;20174;-48
2022/07/05 04:51:16;;;;;;;4.90;2.10;;;23.00;51.00;23.90;101313.00;;;;5067811;28;20200;-47
2022/07/05 04:53:42;;;;;;;3.10;2.10;;;23.00;51.00;23.90;101304.00;;;;5065696;28;20169;-47
2022/07/05 04:56:08;;;;;;;5.93;2.33;;;23.00;51.00;23.90;101305.00;;;;5065766;28;20706;-45
2022/07/05 04:58:33;;;;;;;6.70;2.30;;;23.00;51.20;23.90;101300.00;;;;5074073;28;20772;-48
2022/07/05 05:00:59;;;;;;;6.20;2.40;;;23.00;51.10;23.90;101300.00;;;;5065095;28;20205;-46
2022/07/05 05:03:25;;;;;;;7.10;2.70;;;23.00;51.40;23.90;101310.00;;;;5065059;28;20177;-46
2022/07/05 05:05:51;;;;;;;4.47;2.53;;;23.00;51.40;23.90;101309.00;;;;5065141;28;20192;-47
2022/07/05 05:08:16;;;;;;;3.70;2.40;;;23.00;51.70;23.90;101313.00;;;;5067693;28;20237;-48
2022/07/05 05:10:42;;;;;;;2.87;2.40;;;22.90;51.60;23.90;101307.00;;;;5068609;28;20185;-46
2022/07/05 05:13:08;;;;;;;3.50;2.50;;;23.00;51.80;23.90;101300.00;;;;5068645;28;20184;-48
2022/07/05 05:15:33;;;;;;;2.83;2.20;;;23.00;51.90;23.80;101309.00;;;;5068502;28;20188;-46
2022/07/05 05:18:00;;;;;;;2.57;2.20;;;22.90;51.80;23.80;101309.00;;;;5068574;28;20178;-46
2022/07/05 05:20:26;;;;;;;3.40;2.20;;;22.90;51.60;23.80;101304.00;;;;5069003;28;20177;-46
2022/07/05 05:22:51;;;;;;;2.43;2.20;;;22.90;51.50;23.80;101317.00;;;;5068949;28;20193;-47
2022/07/05 05:25:17;;;;;;;2.20;2.00;;;22.90;51.50;23.70;101319.00;;;;5068909;28;20843;-46
2022/07/05 05:27:48;;;;;;;2.50;2.00;;;22.90;51.70;23.70;101316.00;;;;5067987;28;20205;-46
2022/07/05 05:30:17;;;;;;;2.50;2.00;;;22.90;51.50;23.70;101327.00;;;;5068570;28;20257;-45
2022/07/05 05:32:43;;;;;;;2.20;2.00;;;22.90;51.40;23.70;101325.00;;;;5068529;28;20261;-45
2022/07/05 05:35:09;;;;;;;2.10;1.90;;;22.90;51.30;23.70;101329.00;;;;5068642;28;20177;-47
2022/07/05 05:37:48;;;;;;;2.10;1.90;;;22.90;51.40;23.70;101334.00;;;;5068191;28;20166;-47
2022/07/05 05:40:14;;;;;;;1.90;1.80;;;22.80;51.20;23.70;101320.00;;;;5068673;28;20690;-47
2022/07/05 05:42:40;;;;;;;2.70;1.90;;;22.80;51.60;23.60;101328.00;;;;5068404;28;20264;-45
2022/07/05 05:45:06;;;;;;;2.23;2.03;;;22.80;51.20;23.60;101324.00;;;;5067520;28;20173;-44
2022/07/05 05:47:32;;;;;;;2.50;2.20;;;22.80;51.30;23.60;101323.00;;;;5068121;28;20284;-45
2022/07/05 05:49:58;;;;;;;2.57;1.80;;;22.80;51.20;23.60;101324.00;;;;5068888;28;20808;-45
2022/07/05 05:52:23;;;;;;;2.13;1.90;;;22.80;51.20;23.60;101331.00;;;;5068350;28;20174;-46
2022/07/05 05:54:49;;;;;;;2.23;2.03;;;22.80;51.30;23.60;101329.00;;;;5068655;28;20174;-46
2022/07/05 05:57:15;;;;;;;2.27;1.87;;;22.80;51.30;23.60;101326.00;;;;5067548;28;20243;-47
2022/07/05 05:59:40;;;;;;;2.20;2.00;;;22.80;51.40;23.50;101337.00;;;;5068632;28;20223;-45
2022/07/05 06:02:06;;;;;;;3.47;1.80;;;22.80;51.30;23.50;101333.00;;;;5068215;28;20182;-47
2022/07/05 06:04:32;;;;;;;2.00;1.80;;;22.80;51.30;23.50;101337.00;;;;5068227;28;20748;-46
2022/07/05 06:06:57;;;;;;;1.80;1.70;;;22.70;51.40;23.50;101335.00;;;;5068001;28;20879;-45
2022/07/05 06:09:23;;;;;;;2.10;1.80;;;22.70;51.20;23.50;101336.00;;;;5068039;28;20169;-46
2022/07/05 06:11:49;;;;;;;1.83;1.70;;;22.70;51.20;23.50;101341.00;;;;5068005;28;20827;-46
2022/07/05 06:14:15;;;;;;;2.63;2.00;;;22.60;51.20;23.50;101336.00;;;;5068190;28;20780;-47
2022/07/05 06:16:40;;;;;;;2.33;1.90;;;22.70;51.40;23.50;101343.00;;;;5067827;28;20276;-46
2022/07/05 06:19:06;;;;;;;2.10;2.00;;;22.70;51.60;23.50;101346.00;;;;5066990;28;20256;-46
2022/07/05 06:21:32;;;;;;;2.53;2.10;;;22.70;51.80;23.50;101339.00;;;;5068201;28;20194;-46
2022/07/05 06:23:57;;;;;;;2.20;1.97;;;22.70;51.70;23.50;101348.00;;;;5067990;28;20272;-47
2022/07/05 06:26:23;;;;;;;2.23;1.90;;;22.70;51.60;23.40;101346.00;;;;5067539;28;20688;-46
2022/07/05 06:28:49;;;;;;;3.00;2.00;;;22.70;51.70;23.40;101348.00;;;;5067558;28;20672;-46
2022/07/05 06:31:15;;;;;;;3.33;1.87;;;22.70;51.70;23.40;101347.00;;;;5067481;28;20174;-46
2022/07/05 06:33:41;;;;;;;2.33;2.00;;;22.70;51.80;23.40;101362.00;;;;5067673;28;20231;-47
2022/07/05 06:36:07;;;;;;;1.80;1.70;;;22.60;51.70;23.40;101351.00;;;;5067517;28;20221;-47
2022/07/05 06:38:32;;;;;;;2.03;1.83;;;22.60;51.90;23.40;101360.00;;;;5066896;28;20212;-46
2022/07/05 06:40:59;;;;;;;2.03;1.83;;;22.60;52.10;23.40;101366.00;;;;5067606;28;20793;-45
2022/07/05 06:43:25;;;;;;;2.07;1.87;;;22.60;51.90;23.40;101362.00;;;;5067607;28;20170;-46
2022/07/05 06:45:51;;;;;;;1.80;1.70;;;22.60;52.10;23.40;101367.00;;;;5067570;28;20197;-46
2022/07/05 06:48:17;;;;;;;2.10;1.90;;;22.60;52.00;23.40;101377.00;;;;5067129;28;20205;-46
2022/07/05 06:50:43;;;;;;;3.40;2.07;;;22.60;52.10;23.40;101377.00;;;;5067382;28;20169;-45
2022/07/05 06:53:09;;;;;;;3.57;2.20;;;22.60;52.30;23.40;101385.00;;;;5067406;28;20173;-46
2022/07/05 06:55:35;;;;;;;2.43;2.07;;;22.60;52.30;23.40;101386.00;;;;5067118;28;20601;-46
2022/07/05 06:58:05;;;;;;;3.20;2.57;;;22.60;52.30;23.40;101384.00;;;;5067058;28;20178;-46
2022/07/05 07:00:34;;;;;;;2.50;2.03;;;22.60;52.60;23.40;101387.00;;;;5067030;28;20732;-48
2022/07/05 07:03:00;;;;;;;2.27;2.00;;;22.60;52.60;23.30;101388.00;;;;5067039;28;20201;-45
2022/07/05 07:05:26;;;;;;;2.93;2.20;;;22.60;52.40;23.30;101381.00;;;;5066628;28;20255;-45
2022/07/05 07:10:36;;;;;;;2.53;2.20;;;22.60;52.30;23.30;101390.00;;;;5066832;28;20708;-44
2022/07/05 07:13:02;;;;;;;2.60;2.10;;;22.60;52.30;23.30;101385.00;;;;5066994;28;20190;-46
2022/07/05 07:15:28;;;;;;;2.10;1.90;;;22.50;52.30;23.30;101381.00;;;;5066856;28;20189;-45
2022/07/05 07:17:54;;;;;;;2.10;1.90;;;22.40;52.20;23.30;101379.00;;;;5066660;28;20173;-45
2022/07/05 07:20:20;;;;;;;2.50;2.13;;;22.50;52.20;23.30;101390.00;;;;5066618;28;20719;-46
2022/07/05 07:22:45;;;;;;;2.07;1.63;;;22.50;52.20;23.30;101335.00;;;;5066676;28;20201;-46
2022/07/05 07:25:11;;;;;;;2.93;2.17;;;22.50;51.90;23.30;101389.00;;;;5066814;28;20190;-45
2022/07/05 07:27:48;;;;;;;2.10;1.90;;;22.50;51.90;23.40;101389.00;;;;5066181;28;20293;-46
2022/07/05 07:30:15;;;;;;;2.97;1.90;;;22.50;51.90;23.10;101379.00;;;;5068054;28;20153;-45
2022/07/05 07:32:41;;;;;;;3.17;2.10;;;22.50;51.90;23.30;101387.00;;;;5081179;28;20239;-46
2022/07/05 07:35:08;;;;;;;3.00;2.10;;;22.50;51.80;23.30;101387.00;;;;5070646;28;20170;-45
2022/07/05 07:37:33;;;;;;;4.00;1.90;;;22.60;51.90;23.40;101388.00;;;;5065739;28;20209;-46
2022/07/05 07:40:01;;;;;;;2.30;2.10;;;22.60;51.80;23.40;101388.00;;;;5066828;28;20204;-46
2022/07/05 07:42:27;;;;;;;2.60;1.97;;;22.60;51.90;23.40;101393.00;;;;5066291;28;20239;-45
2022/07/05 07:44:53;;;;;;;3.20;2.30;;;22.60;51.70;23.40;101398.00;;;;5066522;28;20182;-45
2022/07/05 07:47:19;;;;;;;2.70;2.10;;;22.50;51.60;23.40;101393.00;;;;5065265;28;20293;-46
2022/07/05 07:49:45;;;;;;;2.70;2.20;;;22.50;51.80;23.30;101398.00;;;;5066254;28;20178;-45
2022/07/05 07:52:11;;;;;;;3.80;2.33;;;22.50;51.90;23.40;101409.00;;;;5066019;28;20702;-46
2022/07/05 07:54:36;;;;;;;3.53;2.40;;;22.50;51.90;23.40;101413.00;;;;5065027;28;20299;-45
2022/07/05 07:57:04;;;;;;;5.50;2.40;;;22.50;51.80;23.40;101401.00;;;;5065594;28;20197;-46
2022/07/05 07:59:31;;;;;;;4.73;2.40;;;22.60;52.30;23.40;101401.00;;;;5065668;28;20166;-45
2022/07/05 08:01:57;;;;;;;4.80;2.50;;;22.60;52.30;23.40;101406.00;;;;5065641;28;20177;-45
2022/07/05 08:04:23;;;;;;;3.33;2.70;;;22.60;52.30;23.40;101397.00;;;;5065474;28;20868;-44
2022/07/05 08:06:48;;;;;;;4.13;2.60;;;22.60;52.30;23.40;101403.00;;;;5065344;28;20204;-44
2022/07/05 08:09:14;;;;;;;6.33;2.53;;;22.70;52.40;23.50;101403.00;;;;5064883;28;20627;-46
2022/07/05 08:11:40;;;;;;;4.37;2.60;;;22.70;51.60;23.50;101413.00;;;;5065022;28;20166;-44
2022/07/05 08:14:05;;;;;;;3.87;2.50;;;22.70;51.40;23.50;101412.00;;;;5063957;28;20173;-44
2022/07/05 08:16:32;;;;;;;5.07;2.53;;;22.70;51.40;23.50;101411.00;;;;4961809;28;20623;-46
2022/07/05 08:21:43;;;;;;;4.27;2.30;;;22.70;51.60;23.60;101408.00;;;;5085585;28;20850;-44
2022/07/05 08:24:12;;;;;;;4.53;2.30;;;22.70;51.70;23.60;101338.00;;;;5086086;28;20184;-46
2022/07/05 08:26:38;;;;;;;4.10;2.10;;;22.70;51.40;23.60;101404.00;;;;5086240;28;20216;-44
2022/07/05 08:29:07;;;;;;;3.40;2.20;;;22.70;51.30;23.60;101404.00;;;;5085604;28;20169;-45
2022/07/05 08:31:35;;;;;;;4.23;2.10;;;22.70;50.80;23.70;101396.00;;;;5086791;28;20640;-45
2022/07/05 08:34:01;;;;;;;4.03;2.10;;;22.70;50.60;23.70;101415.00;;;;5086208;28;20169;-44
2022/07/05 08:36:26;;;;;;;2.80;2.10;;;22.70;51.20;23.70;101393.00;;;;5085015;28;20670;-45
2022/07/05 08:38:52;;;;;;;2.57;2.23;;;22.70;51.20;23.70;101397.00;;;;5085782;28;20278;-44
2022/07/05 08:41:20;;;;;;;3.43;2.13;;;22.80;50.90;23.70;101400.00;;;;5086276;28;20177;-45
2022/07/05 08:43:46;;;;;;;2.07;1.87;;;22.80;51.10;23.70;101401.00;;;;5088817;28;20229;-45
2022/07/05 08:46:13;;;;;;;3.07;2.07;;;22.80;49.80;23.70;101378.00;;;;5069615;28;20193;-45
2022/07/05 08:48:43;;;;;;;2.20;2.00;;;22.80;50.10;23.70;101397.00;;;;5068502;28;20174;-44
2022/07/05 08:51:14;;;;;;;2.90;1.93;;;22.80;50.50;23.70;101395.00;;;;5070178;28;20170;-45
2022/07/05 08:53:40;;;;;;;2.30;2.00;;;22.80;50.40;23.70;101392.00;;;;5069620;28;20165;-44
2022/07/05 08:56:09;;;;;;;2.20;2.00;;;22.80;50.90;23.80;101390.00;;;;5069838;28;20206;-45
2022/07/05 08:58:36;;;;;;;2.10;1.90;;;22.80;51.20;23.80;101392.00;;;;5068602;28;20169;-45
2022/07/05 09:01:01;;;;;;;2.20;2.00;;;22.80;51.20;23.80;101400.00;;;;5069942;28;20196;-45
2022/07/05 09:03:33;;;;;;;3.13;2.20;;;22.80;51.10;23.80;101402.00;;;;5069663;28;20726;-45
2022/07/05 09:06:00;;;;;;;1.97;1.87;;;22.80;51.00;23.80;101408.00;;;;5070067;28;20201;-45
2022/07/05 09:08:25;;;;;;;2.20;2.00;;;22.80;51.10;23.80;101400.00;;;;5068770;28;20324;-45
2022/07/05 09:10:51;;;;;;;2.70;2.20;;;22.80;51.10;23.80;101406.00;;;;5068852;28;20607;-45
2022/07/05 09:13:17;;;;;;;2.30;2.10;;;22.80;51.20;23.80;101410.00;;;;5068457;28;20169;-45
2022/07/05 09:15:43;;;;;;;2.77;2.10;;;22.90;51.50;23.90;101405.00;;;;5069546;28;20246;-46
2022/07/05 09:18:10;;;;;;;2.50;2.30;;;22.90;51.40;23.80;101392.00;;;;5069385;28;20182;-44
2022/07/05 09:20:36;;;;;;;2.53;1.90;;;22.90;50.70;23.90;101404.00;;;;5087706;28;20192;-45
2022/07/05 09:23:02;;;;;;;2.57;2.13;;;23.00;51.00;23.90;101403.00;;;;5089835;28;20726;-44
2022/07/05 09:25:31;;;;;;;4.10;2.20;;;22.90;51.10;23.90;101407.00;;;;5088258;28;20580;-44
2022/07/05 09:28:09;;;;;;;2.93;2.37;;;23.00;51.00;23.90;101407.00;;;;5089622;28;20558;-47
2022/07/05 09:30:41;;;;;;;2.30;2.03;;;23.00;51.00;23.90;101398.00;;;;5089591;28;20179;-44
2022/07/05 09:33:16;;;;;;;2.20;2.00;;;23.00;51.20;23.90;101408.00;;;;5090029;28;20161;-44
2022/07/05 09:35:43;;;;;;;4.90;2.30;;;23.00;51.30;23.90;101403.00;;;;5089383;28;20192;-44
2022/07/05 09:38:20;;;;;;;3.50;2.50;;;23.00;51.20;23.90;101406.00;;;;5089330;28;20760;-45
2022/07/05 09:40:51;;;;;;;3.37;2.30;;;23.00;49.90;23.90;101402.00;;;;5089428;28;20169;-45
2022/07/05 09:43:27;;;;;;;2.43;2.23;;;23.10;49.50;23.80;101389.00;;;;5088054;28;20157;-44
2022/07/05 09:46:02;;;;;;;3.63;2.40;;;23.00;48.30;23.80;101401.00;;;;5089381;28;20567;-46
2022/07/05 09:48:29;;;;;;;2.57;2.30;;;23.00;48.20;23.80;101410.00;;;;5088867;28;20289;-45
2022/07/05 09:51:09;;;;;;;3.50;2.33;;;23.00;47.00;23.80;101396.00;;;;5089034;28;20763;-44
2022/07/05 09:53:52;;;;;;;3.47;2.43;;;23.00;45.60;23.70;101398.00;;;;5088184;28;20270;-45
2022/07/05 09:56:18;;;;;;;5.00;2.50;;;22.90;45.70;23.70;101402.00;;;;5003563;28;20212;-45
2022/07/05 09:58:45;;;;;;;2.73;2.30;;;22.90;46.10;23.70;101393.00;;;;5083456;28;20297;-45
2022/07/05 10:01:30;;;;;;;3.33;2.40;;;23.00;46.80;23.80;101397.00;;;;5107126;28;20183;-45
2022/07/05 10:04:02;;;;;;;2.77;2.33;;;23.00;46.70;23.80;101388.00;;;;5094572;28;20169;-45
2022/07/05 10:06:31;;;;;;;2.90;2.60;;;23.10;47.00;23.80;101392.00;;;;5088343;28;20213;-45
2022/07/05 10:08:57;;;;;;;3.17;2.40;;;23.10;46.30;23.80;101408.00;;;;5103548;28;20169;-45
2022/07/05 10:11:32;;;;;;;3.50;2.53;;;23.10;46.40;23.80;101400.00;;;;5104106;28;20869;-44
2022/07/05 10:13:58;;;;;;;3.57;2.30;;;23.10;46.80;23.90;101405.00;;;;5088344;28;20218;-46
2022/07/05 10:16:24;;;;;;;3.43;2.50;;;23.10;47.10;23.90;101395.00;;;;5087960;28;20193;-45
2022/07/05 10:18:56;;;;;;;3.73;2.17;;;23.10;47.10;23.90;101407.00;;;;5087709;28;20169;-45
2022/07/05 10:21:24;;;;;;;4.73;2.43;;;23.20;47.50;23.90;101406.00;;;;5080582;28;20226;-45
2022/07/05 10:23:53;;;;;;;5.50;2.20;;;23.20;47.60;24.00;101405.00;;;;5091044;28;20246;-46
2022/07/05 10:26:19;;;;;;;3.53;2.30;;;23.10;48.00;24.00;101406.00;;;;5091511;28;20227;-45
2022/07/05 10:28:47;;;;;;;2.73;2.20;;;23.20;47.60;24.00;101406.00;;;;5091529;28;20169;-46
2022/07/05 10:31:14;;;;;;;4.57;2.30;;;23.30;48.00;24.00;101411.00;;;;5090933;28;20162;-46
2022/07/05 10:33:40;;;;;;;3.20;2.40;;;23.30;48.20;24.10;101400.00;;;;5096930;28;20173;-45
2022/07/05 10:36:06;;;;;;;2.67;2.13;;;23.30;48.00;24.10;101398.00;;;;5109988;28;20239;-46
2022/07/05 10:38:35;;;;;;;3.50;2.50;;;23.30;48.50;24.10;101382.00;;;;5093620;28;20177;-45
2022/07/05 10:41:02;;;;;;;3.13;2.30;;;23.30;48.70;24.10;101401.00;;;;5089417;28;20259;-49
2022/07/05 10:43:28;;;;;;;2.47;2.27;;;23.30;48.50;24.20;101403.00;;;;5089552;28;20193;-44
2022/07/05 10:45:54;;;;;;;5.70;2.40;;;23.40;48.60;24.20;101401.00;;;;5090570;28;20201;-45
2022/07/05 10:48:27;;;;;;;2.20;2.00;;;23.40;48.70;24.20;101397.00;;;;5090398;28;20204;-45
2022/07/05 10:51:21;;;;;;;4.60;2.30;;;23.40;48.80;24.20;101401.00;;;;5090393;28;20161;-44